createdAt,value
2018-06-11T00:00:32.905Z,18.43
2018-06-11T00:02:59.750Z,18.42
2018-06-11T00:05:26.547Z,18.40
2018-06-11T00:07:53.273Z,18.41
2018-06-11T00:10:20.073Z,18.37
2018-06-11T00:12:50.359Z,18.45
2018-06-11T00:15:16.985Z,18.42
2018-06-11T00:17:43.741Z,18.42
2018-06-11T00:20:10.273Z,18.47
2018-06-11T00:22:38.128Z,18.28
2018-06-11T00:25:04.804Z,18.24
2018-06-11T00:27:31.579Z,18.39
2018-06-11T00:29:58.293Z,18.52
2018-06-11T00:32:25.954Z,18.70
2018-06-11T00:34:52.848Z,18.80
2018-06-11T00:37:19.448Z,18.92
2018-06-11T00:39:46.151Z,18.90
2018-06-11T00:42:15.946Z,18.98
2018-06-11T00:44:42.731Z,18.92
2018-06-11T00:47:09.502Z,18.93
2018-06-11T00:49:36.142Z,18.93
2018-06-11T00:52:10.699Z,19.01
2018-06-11T00:54:37.393Z,19.01
2018-06-11T00:57:04.096Z,18.99
2018-06-11T00:59:30.676Z,18.82
2018-06-11T01:01:57.472Z,18.73
2018-06-11T01:04:24.096Z,18.70
2018-06-11T01:06:50.782Z,18.61
2018-06-11T01:09:17.465Z,18.60
2018-06-11T01:11:48.005Z,18.36
2018-06-11T01:14:14.672Z,18.47
2018-06-11T01:16:41.378Z,18.46
2018-06-11T01:19:08.093Z,18.56
2018-06-11T01:21:34.890Z,18.73
2018-06-11T01:24:02.501Z,18.85
2018-06-11T01:26:29.189Z,19.05
2018-06-11T01:28:55.821Z,19.37
2018-06-11T01:31:22.399Z,19.41
2018-06-11T01:33:49.373Z,19.41
2018-06-11T01:36:16.083Z,19.45
2018-06-11T01:38:42.849Z,19.08
2018-06-11T01:41:09.639Z,19.03
2018-06-11T01:43:39.727Z,18.95
2018-06-11T01:46:06.500Z,18.80
2018-06-11T01:48:33.305Z,18.62
2018-06-11T01:51:00.082Z,18.60
2018-06-11T01:53:34.615Z,18.53
2018-06-11T01:56:01.377Z,18.48
2018-06-11T01:58:28.214Z,18.39
2018-06-11T02:00:54.987Z,18.40
2018-06-11T02:03:22.911Z,18.64
2018-06-11T02:05:49.696Z,18.50
2018-06-11T02:08:16.415Z,18.43
2018-06-11T02:10:43.130Z,18.49
2018-06-11T02:13:13.507Z,18.47
2018-06-11T02:15:40.155Z,18.39
2018-06-11T02:18:06.936Z,18.41
2018-06-11T02:20:33.588Z,18.16
2018-06-11T02:23:06.121Z,18.20
2018-06-11T02:25:32.722Z,18.01
2018-06-11T02:27:59.313Z,18.12
2018-06-11T02:30:26.231Z,18.10
2018-06-11T02:32:52.974Z,18.28
2018-06-11T02:35:19.642Z,18.36
2018-06-11T02:37:46.371Z,18.45
2018-06-11T02:40:13.057Z,18.34
2018-06-11T02:42:42.992Z,18.45
2018-06-11T02:45:09.806Z,18.45
2018-06-11T02:47:36.437Z,18.38
2018-06-11T02:50:03.108Z,18.74
2018-06-11T02:52:37.363Z,18.60
2018-06-11T02:55:04.130Z,18.25
2018-06-11T02:57:30.666Z,18.43
2018-06-11T02:59:57.531Z,18.26
2018-06-11T03:02:24.145Z,18.23
2018-06-11T03:04:50.823Z,18.24
2018-06-11T03:07:17.669Z,18.07
2018-06-11T03:09:44.365Z,18.00
2018-06-11T03:12:11.081Z,17.94
2018-06-11T03:14:37.720Z,18.03
2018-06-11T03:17:04.324Z,17.93
2018-06-11T03:19:34.918Z,17.93
2018-06-11T03:22:06.332Z,17.82
2018-06-11T03:24:32.818Z,17.87
2018-06-11T03:26:59.487Z,17.60
2018-06-11T03:29:26.430Z,17.88
2018-06-11T03:31:56.346Z,17.90
2018-06-11T03:34:23.086Z,18.10
2018-06-11T03:36:49.785Z,18.11
2018-06-11T03:39:16.454Z,18.14
2018-06-11T03:41:43.169Z,18.27
2018-06-11T03:44:09.902Z,18.68
2018-06-11T03:46:36.747Z,18.96
2018-06-11T03:49:03.434Z,19.14
2018-06-11T03:51:30.283Z,19.05
2018-06-11T03:53:57.001Z,18.89
2018-06-11T03:56:23.754Z,18.89
2018-06-11T03:58:50.478Z,19.04
2018-06-11T04:01:20.917Z,19.12
2018-06-11T04:03:47.653Z,19.25
2018-06-11T04:06:14.342Z,19.50
2018-06-11T04:08:41.020Z,19.03
2018-06-11T04:11:08.793Z,19.39
2018-06-11T04:13:35.331Z,19.67
2018-06-11T04:16:02.069Z,19.50
2018-06-11T04:18:28.737Z,19.77
2018-06-11T04:20:55.401Z,19.94
2018-06-11T04:23:21.992Z,20.10
2018-06-11T04:25:48.573Z,19.84
2018-06-11T04:28:18.761Z,20.38
2018-06-11T04:30:45.506Z,20.52
2018-06-11T04:33:12.248Z,20.73
2018-06-11T04:35:39.165Z,20.86
2018-06-11T04:38:05.751Z,21.39
2018-06-11T04:40:32.408Z,20.89
2018-06-11T04:42:59.034Z,21.24
2018-06-11T04:45:25.678Z,21.80
2018-06-11T04:47:52.393Z,21.69
2018-06-11T04:50:20.314Z,22.34
2018-06-11T04:52:47.034Z,22.53
2018-06-11T04:55:13.538Z,22.63
2018-06-11T04:57:40.270Z,22.30
2018-06-11T05:00:07.783Z,22.38
2018-06-11T05:02:34.466Z,22.01
2018-06-11T05:05:01.341Z,23.11
2018-06-11T05:07:28.018Z,21.74
2018-06-11T05:09:54.919Z,23.20
2018-06-11T05:12:25.313Z,23.51
2018-06-11T05:14:52.064Z,23.29
2018-06-11T05:17:18.894Z,23.52
2018-06-11T05:19:50.272Z,23.76
2018-06-11T05:22:17.036Z,22.36
2018-06-11T05:24:43.779Z,23.66
2018-06-11T05:27:10.339Z,23.93
2018-06-11T05:29:37.057Z,23.61
2018-06-11T05:32:03.784Z,24.28
2018-06-11T05:34:30.601Z,24.25
2018-06-11T05:36:57.239Z,24.41
2018-06-11T05:39:31.525Z,24.35
2018-06-11T05:41:58.327Z,24.20
2018-06-11T05:44:24.980Z,24.67
2018-06-11T05:46:51.746Z,25.30
2018-06-11T05:49:21.614Z,25.44
2018-06-11T05:51:48.237Z,24.15
2018-06-11T05:54:14.843Z,23.17
2018-06-11T05:56:41.627Z,23.86
2018-06-11T05:59:14.320Z,25.56
2018-06-11T06:01:40.990Z,26.42
2018-06-11T06:04:07.605Z,25.85
2018-06-11T06:06:34.186Z,26.46
2018-06-11T06:09:04.325Z,26.54
2018-06-11T06:11:30.884Z,27.12
2018-06-11T06:13:57.583Z,27.15
2018-06-11T06:16:24.418Z,27.09
2018-06-11T06:18:51.154Z,27.55
2018-06-11T06:21:17.939Z,27.42
2018-06-11T19:15:51.981Z,22.58
2018-06-11T19:18:23.210Z,22.34
2018-06-11T19:20:53.644Z,21.92
2018-06-11T19:23:23.731Z,22.13
2018-06-11T19:25:54.084Z,22.30
2018-06-11T19:28:24.422Z,22.10
2018-06-11T19:30:54.865Z,21.68
2018-06-11T19:33:25.367Z,21.54
2018-06-11T19:35:55.643Z,21.42
2018-06-11T19:38:25.875Z,22.02
2018-06-11T19:40:56.087Z,22.07
2018-06-11T19:43:28.999Z,22.20
2018-06-11T19:46:00.833Z,22.08
2018-06-11T19:48:35.675Z,21.68
2018-06-11T19:51:06.076Z,21.45
2018-06-11T19:53:36.235Z,21.17
2018-06-11T19:56:06.668Z,21.16
2018-06-11T19:58:39.020Z,21.19
2018-06-11T20:01:09.461Z,21.53
2018-06-11T20:03:39.812Z,21.83
2018-06-11T20:06:10.123Z,21.88
2018-06-11T20:08:44.974Z,21.44
2018-06-11T20:11:15.393Z,21.05
2018-06-11T20:13:45.823Z,20.88
2018-06-11T20:16:16.334Z,21.20
2018-06-11T20:18:47.345Z,21.68
2018-06-11T20:21:17.749Z,21.53
2018-06-11T20:23:47.675Z,21.67
2018-06-11T20:26:18.070Z,21.74
2018-06-11T20:28:49.386Z,21.57
2018-06-11T20:31:19.793Z,21.68
2018-06-11T20:33:50.211Z,21.32
2018-06-11T20:36:20.689Z,20.86
2018-06-11T20:38:54.245Z,20.81
2018-06-11T20:41:24.666Z,21.31
2018-06-11T20:43:55.930Z,21.38
2018-06-11T20:46:26.288Z,21.19
2018-06-11T20:48:56.833Z,21.00
2018-06-11T20:51:27.244Z,21.00
2018-06-11T20:53:57.523Z,20.81
2018-06-11T20:56:28.054Z,20.73
2018-06-11T20:58:58.230Z,21.15
2018-06-11T21:01:28.606Z,21.49
2018-06-11T21:03:59.002Z,21.49
2018-06-11T21:06:29.393Z,21.40
2018-06-11T21:08:59.801Z,21.51
2018-06-11T21:11:30.301Z,21.28
2018-06-11T21:14:00.636Z,21.36
2018-06-11T21:18:50.364Z,21.01
2018-06-11T21:21:20.776Z,21.08
2018-06-11T21:23:51.125Z,21.15
2018-06-11T21:26:21.462Z,21.15
2018-06-11T21:28:52.882Z,21.01
2018-06-11T21:31:24.358Z,20.86
2018-06-11T21:33:54.756Z,20.72
2018-06-11T21:36:25.072Z,20.23
2018-06-11T21:38:56.342Z,20.29
2018-06-11T21:41:26.733Z,20.81
2018-06-11T21:43:56.975Z,21.06
2018-06-11T21:46:27.243Z,21.03
2018-06-11T21:48:57.769Z,20.65
2018-06-11T21:51:28.214Z,20.43
2018-06-11T21:54:01.490Z,20.85
2018-06-11T21:56:31.720Z,20.84
2018-06-11T21:59:03.231Z,20.90
2018-06-11T22:01:33.778Z,20.93
2018-06-11T22:04:04.363Z,21.06
2018-06-11T22:06:34.286Z,20.98
2018-06-11T22:09:04.677Z,20.75
2018-06-11T22:11:34.847Z,21.04
2018-06-11T22:14:04.958Z,20.98
2018-06-11T22:16:35.362Z,20.79
2018-06-11T22:19:05.646Z,20.77
2018-06-11T22:21:35.928Z,20.98
2018-06-11T22:24:07.205Z,21.00
2018-06-11T22:26:37.372Z,20.98
2018-06-11T22:29:07.803Z,20.73
2018-06-11T22:31:38.186Z,20.54
2018-06-11T22:34:08.437Z,20.49
2018-06-11T22:36:38.862Z,20.75
2018-06-11T22:39:09.410Z,20.88
2018-06-11T22:41:39.809Z,20.70
2018-06-11T22:44:10.038Z,20.21
2018-06-11T22:46:40.310Z,20.76
2018-06-11T22:49:10.736Z,20.82
2018-06-11T22:51:41.150Z,20.47
2018-06-11T22:54:11.561Z,19.72
2018-06-11T22:56:41.674Z,19.80
2018-06-11T22:59:15.590Z,20.27
2018-06-11T23:01:46.005Z,20.29
2018-06-11T23:04:16.372Z,20.44
2018-06-11T23:06:46.776Z,20.25
2018-06-11T23:09:16.981Z,19.85
2018-06-11T23:11:47.377Z,19.65
2018-06-11T23:14:17.710Z,19.81
2018-06-11T23:16:47.823Z,20.34
2018-06-11T23:19:18.163Z,20.39
2018-06-11T23:21:48.521Z,20.52
2018-06-11T23:24:18.525Z,20.28
2018-06-11T23:26:48.930Z,20.40
2018-06-11T23:29:20.135Z,20.12
2018-06-11T23:31:50.458Z,19.91
2018-06-11T23:34:20.842Z,19.88
2018-06-11T23:36:51.153Z,19.69
2018-06-11T23:39:22.404Z,19.69
2018-06-11T23:41:52.713Z,20.19
2018-06-11T23:44:23.039Z,20.31
2018-06-11T23:46:53.453Z,20.27
2018-06-11T23:49:27.045Z,20.01
2018-06-11T23:51:57.558Z,20.21
2018-06-11T23:54:27.898Z,20.32
2018-06-11T23:56:58.297Z,20.29
2018-06-11T23:59:29.504Z,20.32
